Sunflower Hakata — JL6711 — position and weather

sailwx.info

Track history (hours):
 
Tides and Currents Weather Stations Pressure Air Temp Water Temp Dewpoint Dewpoint Depression Visibility Wind Speed Wind Dir Waves Ship Positions

Sunflower Hakata

Last reported at 2015-May-30 11:13 UTC. Time now 2015-May-30 18:39 UTC.
Position N 34°00' E 130°50'.

Length 194 m; draft 6.5 m.

Type: Cargo ship. MMSI: 431501764.

Date/timePositionNaut miles runAvg speedWind from/ knotsBaromVisibWave heightAir tempDewpointWater temp
2015-May-30 11:13N 34°00' E 130°50'1620.0
2015-May-30 10:25N 33°59' E 130°31'1820.4
2015-May-30 09:33N 33°45' E 130°17'10 9.8
2015-May-30 08:33N 33°38' E 130°24'0 0.0
2015-May-30 07:32N 33°38' E 130°24'0 0.0
2015-May-30 06:31N 33°38' E 130°24'0 0.0
2015-May-30 05:31N 33°38' E 130°24'0 0.0
2015-May-30 04:31N 33°38' E 130°24'0 0.0
2015-May-30 03:31N 33°38' E 130°24'0 0.0
2015-May-30 02:31N 33°38' E 130°24'0 0.0
2015-May-30 01:31N 33°38' E 130°24'0 0.0
2015-May-30 00:31N 33°38' E 130°24'0 0.0
2015-May-29 23:31N 33°38' E 130°24'0 0.0
2015-May-29 22:31N 33°38' E 130°24'0 0.0
2015-May-29 21:31N 33°38' E 130°24'0 0.0
2015-May-29 20:32N 33°38' E 130°24'8 8.1
2015-May-29 19:33N 33°41' E 130°16'2020.0
2015-May-29 18:33N 33°59' E 130°28'40115.9
2015-May-28 17:23N 34°29' E 138°31'4620.1
2015-May-28 15:07N 34°52' E 139°19'1221.5
2015-May-28 14:33N 34°59' E 139°31'1919.1
2015-May-28 13:33N 35°14' E 139°46'1414.4
2015-May-28 12:33N 35°28' E 139°48'9 9.1
2015-May-28 11:33N 35°37' E 139°48'0 0.0
2015-May-28 10:33N 35°37' E 139°48'0 0.0
2015-May-28 09:33N 35°37' E 139°48'0 0.0
2015-May-28 08:22N 35°37' E 139°48'0 0.0
2015-May-28 07:28N 35°37' E 139°48'0 0.0
2015-May-28 06:31N 35°37' E 139°48'0 0.0
2015-May-28 05:28N 35°37' E 139°48'0 0.0
2015-May-28 04:28N 35°37' E 139°48'0 0.0
2015-May-28 03:31N 35°37' E 139°48'0 0.0
2015-May-28 02:31N 35°37' E 139°48'0 0.0
2015-May-28 01:22N 35°37' E 139°48'0 0.0
2015-May-28 00:28N 35°37' E 139°48'0 0.0
2015-May-27 23:31N 35°37' E 139°48'0 0.0
2015-May-27 22:22N 35°37' E 139°48'0 0.0
2015-May-27 21:28N 35°37' E 139°48'0 0.0
2015-May-27 20:33N 35°37' E 139°48'8 7.5
2015-May-27 19:33N 35°30' E 139°52'1414.1
2015-May-27 18:33N 35°18' E 139°45'1615.6
2015-May-27 17:34N 35°02' E 139°41'24017.1
2015-May-27 03:33N 34°04' E 134°58'2121.0
2015-May-27 02:33N 34°24' E 135°00'1212.2
2015-May-27 01:34N 34°35' E 134°52'229 8.7
2015-May-25 23:21N 33°38' E 130°24'0 0.2
2015-May-25 22:33N 33°37' E 130°24'0 0.0
2015-May-25 21:33N 33°37' E 130°24'0 0.0
2015-May-25 20:33N 33°37' E 130°24'0 0.0
2015-May-25 19:33N 33°37' E 130°24'0 0.0
2015-May-25 18:30N 33°37' E 130°24'0 0.0
2015-May-25 17:30N 33°37' E 130°24'0 0.0
2015-May-25 16:33N 33°37' E 130°24'0 0.0
2015-May-25 15:33N 33°37' E 130°24'0 0.0
2015-May-25 14:33N 33°37' E 130°24'0 0.0
2015-May-25 13:33N 33°37' E 130°24'0 0.0
2015-May-25 12:33N 33°37' E 130°24'0 0.0
2015-May-25 11:33N 33°37' E 130°24'0 0.0
2015-May-25 10:33N 33°37' E 130°24'0 0.0
2015-May-25 09:33N 33°37' E 130°24'0 0.0
2015-May-25 08:33N 33°37' E 130°24'0 0.0
2015-May-25 07:33N 33°37' E 130°24'0 0.0
2015-May-25 06:33N 33°37' E 130°24'0 0.0
2015-May-25 05:33N 33°37' E 130°24'0 0.0
2015-May-25 04:33N 33°37' E 130°24'0 0.0
2015-May-25 03:33N 33°37' E 130°24'0 0.0
2015-May-25 02:33N 33°37' E 130°24'0 0.0
2015-May-25 01:33N 33°37' E 130°24'0 0.0
2015-May-25 00:33N 33°37' E 130°24'0 0.0
2015-May-24 23:33N 33°37' E 130°24'0 0.0
2015-May-24 22:33N 33°37' E 130°24'0 0.0
2015-May-24 21:33N 33°37' E 130°24'0 0.0
2015-May-24 20:32N 33°37' E 130°24'8 8.3
2015-May-24 19:33N 33°42' E 130°16'1918.9
2015-May-24 18:33N 33°58' E 130°27'1716.5
2015-May-24 17:29N 34°03' E 130°47'37715.5
2015-May-23 17:12N 34°29' E 138°22'3420.0
2015-May-23 15:28N 34°36' E 139°03'1820.2
2015-May-23 14:33N 34°50' E 139°17'2019.8
2015-May-23 13:33N 35°02' E 139°36'1616.1
2015-May-23 12:33N 35°16' E 139°46'1514.7
2015-May-23 11:33N 35°30' E 139°51'7 7.4
2015-May-23 10:33N 35°37' E 139°48'0 0.0
2015-May-23 09:33N 35°37' E 139°48'0 0.0
2015-May-23 08:33N 35°37' E 139°48'0 0.0
2015-May-23 07:33N 35°37' E 139°48'0 0.0
2015-May-23 06:32N 35°37' E 139°48'0 0.0
2015-May-23 05:25N 35°37' E 139°48'0 0.0
2015-May-23 04:31N 35°37' E 139°48'0 0.0
2015-May-23 03:25N 35°37' E 139°48'0 0.0
2015-May-23 02:28N 35°37' E 139°48'0 0.0
2015-May-23 01:25N 35°37' E 139°48'0 0.0
2015-May-23 00:31N 35°37' E 139°48'0 0.0
2015-May-22 23:31N 35°37' E 139°48'0 0.0
2015-May-22 22:31N 35°37' E 139°48'0 0.0
2015-May-22 21:25N 35°37' E 139°48'0 0.0
2015-May-22 20:33N 35°37' E 139°48'6 6.1
2015-May-22 19:33N 35°32' E 139°52'1515.2
2015-May-22 18:33N 35°18' E 139°45'1616.1
2015-May-22 17:33N 35°02' E 139°41'24218.4
2015-May-22 04:22N 33°54' E 134°59'1720.5
2015-May-22 03:34N 34°10' E 134°58'2020.1
2015-May-22 02:33N 34°30' E 135°02'1312.7
2015-May-22 01:33N 34°34' E 134°47'19913.9
2015-May-21 11:10N 34°02' E 130°49'1621.5
2015-May-21 10:25N 33°58' E 130°30'1921.9
2015-May-21 09:33N 33°43' E 130°16'9 8.7
2015-May-21 08:32N 33°38' E 130°24'0 0.0
2015-May-21 07:32N 33°38' E 130°24'0 0.0
2015-May-21 06:32N 33°38' E 130°24'0 0.0
2015-May-21 05:32N 33°38' E 130°24'0 0.0
2015-May-21 04:32N 33°38' E 130°24'0 0.0
2015-May-21 03:32N 33°38' E 130°24'0 0.0
2015-May-21 02:32N 33°38' E 130°24'0 0.0
2015-May-21 01:32N 33°38' E 130°24'0 0.0
2015-May-21 00:32N 33°38' E 130°24'0 0.0
2015-May-20 23:32N 33°38' E 130°24'0 0.0
2015-May-20 22:32N 33°38' E 130°24'0 0.0
2015-May-20 21:29N 33°38' E 130°24'0 0.0
2015-May-20 20:28N 33°38' E 130°24'8 9.0
2015-May-20 19:33N 33°42' E 130°16'2119.0
2015-May-20 18:28N 33°59' E 130°29'  
Track history (hours):
 
Tides and Currents Weather Stations Pressure Air Temp Water Temp Dewpoint Dewpoint Depression Visibility Wind Speed Wind Dir Waves Ship Positions

Sunflower Hakata

Last reported at 2015-May-30 11:13 UTC. Time now 2015-May-30 18:39 UTC.
Position N 34°00' E 130°50'.

Length 194 m; draft 6.5 m.

Type: Cargo ship. MMSI: 431501764.

Date/timePositionNaut miles runAvg speedWind from/ knotsBaromVisibWave heightAir tempDewpointWater temp
2015-May-30 11:13N 34°00' E 130°50'1620.0
2015-May-30 10:25N 33°59' E 130°31'1820.4
2015-May-30 09:33N 33°45' E 130°17'10 9.8
2015-May-30 08:33N 33°38' E 130°24'0 0.0
2015-May-30 07:32N 33°38' E 130°24'0 0.0
2015-May-30 06:31N 33°38' E 130°24'0 0.0
2015-May-30 05:31N 33°38' E 130°24'0 0.0
2015-May-30 04:31N 33°38' E 130°24'0 0.0
2015-May-30 03:31N 33°38' E 130°24'0 0.0
2015-May-30 02:31N 33°38' E 130°24'0 0.0
2015-May-30 01:31N 33°38' E 130°24'0 0.0
2015-May-30 00:31N 33°38' E 130°24'0 0.0
2015-May-29 23:31N 33°38' E 130°24'0 0.0
2015-May-29 22:31N 33°38' E 130°24'0 0.0
2015-May-29 21:31N 33°38' E 130°24'0 0.0
2015-May-29 20:32N 33°38' E 130°24'8 8.1
2015-May-29 19:33N 33°41' E 130°16'2020.0
2015-May-29 18:33N 33°59' E 130°28'40115.9
2015-May-28 17:23N 34°29' E 138°31'4620.1
2015-May-28 15:07N 34°52' E 139°19'1221.5
2015-May-28 14:33N 34°59' E 139°31'1919.1
2015-May-28 13:33N 35°14' E 139°46'1414.4
2015-May-28 12:33N 35°28' E 139°48'9 9.1
2015-May-28 11:33N 35°37' E 139°48'0 0.0
2015-May-28 10:33N 35°37' E 139°48'0 0.0
2015-May-28 09:33N 35°37' E 139°48'0 0.0
2015-May-28 08:22N 35°37' E 139°48'0 0.0
2015-May-28 07:28N 35°37' E 139°48'0 0.0
2015-May-28 06:31N 35°37' E 139°48'0 0.0
2015-May-28 05:28N 35°37' E 139°48'0 0.0
2015-May-28 04:28N 35°37' E 139°48'0 0.0
2015-May-28 03:31N 35°37' E 139°48'0 0.0
2015-May-28 02:31N 35°37' E 139°48'0 0.0
2015-May-28 01:22N 35°37' E 139°48'0 0.0
2015-May-28 00:28N 35°37' E 139°48'0 0.0
2015-May-27 23:31N 35°37' E 139°48'0 0.0
2015-May-27 22:22N 35°37' E 139°48'0 0.0
2015-May-27 21:28N 35°37' E 139°48'0 0.0
2015-May-27 20:33N 35°37' E 139°48'8 7.5
2015-May-27 19:33N 35°30' E 139°52'1414.1
2015-May-27 18:33N 35°18' E 139°45'1615.6
2015-May-27 17:34N 35°02' E 139°41'24017.1
2015-May-27 03:33N 34°04' E 134°58'2121.0
2015-May-27 02:33N 34°24' E 135°00'1212.2
2015-May-27 01:34N 34°35' E 134°52'229 8.7
2015-May-25 23:21N 33°38' E 130°24'0 0.2
2015-May-25 22:33N 33°37' E 130°24'0 0.0
2015-May-25 21:33N 33°37' E 130°24'0 0.0
2015-May-25 20:33N 33°37' E 130°24'0 0.0
2015-May-25 19:33N 33°37' E 130°24'0 0.0
2015-May-25 18:30N 33°37' E 130°24'0 0.0
2015-May-25 17:30N 33°37' E 130°24'0 0.0
2015-May-25 16:33N 33°37' E 130°24'0 0.0
2015-May-25 15:33N 33°37' E 130°24'0 0.0
2015-May-25 14:33N 33°37' E 130°24'0 0.0
2015-May-25 13:33N 33°37' E 130°24'0 0.0
2015-May-25 12:33N 33°37' E 130°24'0 0.0
2015-May-25 11:33N 33°37' E 130°24'0 0.0
2015-May-25 10:33N 33°37' E 130°24'0 0.0
2015-May-25 09:33N 33°37' E 130°24'0 0.0
2015-May-25 08:33N 33°37' E 130°24'0 0.0
2015-May-25 07:33N 33°37' E 130°24'0 0.0
2015-May-25 06:33N 33°37' E 130°24'0 0.0
2015-May-25 05:33N 33°37' E 130°24'0 0.0
2015-May-25 04:33N 33°37' E 130°24'0 0.0
2015-May-25 03:33N 33°37' E 130°24'0 0.0
2015-May-25 02:33N 33°37' E 130°24'0 0.0
2015-May-25 01:33N 33°37' E 130°24'0 0.0
2015-May-25 00:33N 33°37' E 130°24'0 0.0
2015-May-24 23:33N 33°37' E 130°24'0 0.0
2015-May-24 22:33N 33°37' E 130°24'0 0.0
2015-May-24 21:33N 33°37' E 130°24'0 0.0
2015-May-24 20:32N 33°37' E 130°24'8 8.3
2015-May-24 19:33N 33°42' E 130°16'1918.9
2015-May-24 18:33N 33°58' E 130°27'1716.5
2015-May-24 17:29N 34°03' E 130°47'37715.5
2015-May-23 17:12N 34°29' E 138°22'3420.0
2015-May-23 15:28N 34°36' E 139°03'1820.2
2015-May-23 14:33N 34°50' E 139°17'2019.8
2015-May-23 13:33N 35°02' E 139°36'1616.1
2015-May-23 12:33N 35°16' E 139°46'1514.7
2015-May-23 11:33N 35°30' E 139°51'7 7.4
2015-May-23 10:33N 35°37' E 139°48'0 0.0
2015-May-23 09:33N 35°37' E 139°48'0 0.0
2015-May-23 08:33N 35°37' E 139°48'0 0.0
2015-May-23 07:33N 35°37' E 139°48'0 0.0
2015-May-23 06:32N 35°37' E 139°48'0 0.0
2015-May-23 05:25N 35°37' E 139°48'0 0.0
2015-May-23 04:31N 35°37' E 139°48'0 0.0
2015-May-23 03:25N 35°37' E 139°48'0 0.0
2015-May-23 02:28N 35°37' E 139°48'0 0.0
2015-May-23 01:25N 35°37' E 139°48'0 0.0
2015-May-23 00:31N 35°37' E 139°48'0 0.0
2015-May-22 23:31N 35°37' E 139°48'0 0.0
2015-May-22 22:31N 35°37' E 139°48'0 0.0
2015-May-22 21:25N 35°37' E 139°48'0 0.0
2015-May-22 20:33N 35°37' E 139°48'6 6.1
2015-May-22 19:33N 35°32' E 139°52'1515.2
2015-May-22 18:33N 35°18' E 139°45'1616.1
2015-May-22 17:33N 35°02' E 139°41'24218.4
2015-May-22 04:22N 33°54' E 134°59'1720.5
2015-May-22 03:34N 34°10' E 134°58'2020.1
2015-May-22 02:33N 34°30' E 135°02'1312.7
2015-May-22 01:33N 34°34' E 134°47'19913.9
2015-May-21 11:10N 34°02' E 130°49'1621.5
2015-May-21 10:25N 33°58' E 130°30'1921.9
2015-May-21 09:33N 33°43' E 130°16'9 8.7
2015-May-21 08:32N 33°38' E 130°24'0 0.0
2015-May-21 07:32N 33°38' E 130°24'0 0.0
2015-May-21 06:32N 33°38' E 130°24'0 0.0
2015-May-21 05:32N 33°38' E 130°24'0 0.0
2015-May-21 04:32N 33°38' E 130°24'0 0.0
2015-May-21 03:32N 33°38' E 130°24'0 0.0
2015-May-21 02:32N 33°38' E 130°24'0 0.0
2015-May-21 01:32N 33°38' E 130°24'0 0.0
2015-May-21 00:32N 33°38' E 130°24'0 0.0
2015-May-20 23:32N 33°38' E 130°24'0 0.0
2015-May-20 22:32N 33°38' E 130°24'0 0.0
2015-May-20 21:29N 33°38' E 130°24'0 0.0
2015-May-20 20:28N 33°38' E 130°24'8 9.0
2015-May-20 19:33N 33°42' E 130°16'2119.0
2015-May-20 18:28N 33°59' E 130°29'  

Dump ship's entire track history